Time;durP1;ratioP1;P1;durP2;ratioP2;P2;SDS_P1;SDS_P2;PMS_P1;PMS_P2;Temp;Humidity;BMP_temperature;BMP_pressure;BME280_temperature;BME280_humidity;BME280_pressure;Samples;Min_cycle;Max_cycle;Signal;HPM_P1;HPM_P2
2022/02/19 00:01:30;;;;;;;2.00;0.95;;;22.70;36.60;;;;;;5091064;28;20382;-74
2022/02/19 00:03:57;;;;;;;2.33;1.00;;;22.70;36.50;;;;;;5091831;28;20382;-74
2022/02/19 00:06:23;;;;;;;1.90;0.90;;;22.60;36.30;;;;;;5092144;28;20393;-73
2022/02/19 00:08:48;;;;;;;1.20;0.80;;;22.60;36.30;;;;;;5092175;28;20386;-74
2022/02/19 00:11:14;;;;;;;1.70;0.90;;;22.60;36.20;;;;;;5092808;28;20386;-74
2022/02/19 00:13:40;;;;;;;2.28;1.08;;;22.60;36.40;;;;;;5092016;28;20742;-75
2022/02/19 00:16:06;;;;;;;1.70;0.90;;;22.60;36.50;;;;;;5091860;28;20382;-74
2022/02/19 00:18:32;;;;;;;1.52;0.80;;;22.60;36.50;;;;;;5090839;28;20401;-74
2022/02/19 00:20:58;;;;;;;1.10;0.70;;;22.60;36.40;;;;;;5090991;28;20387;-74
2022/02/19 00:23:28;;;;;;;1.27;0.68;;;22.50;36.20;;;;;;5090824;28;20404;-74
2022/02/19 00:25:54;;;;;;;1.70;1.10;;;22.50;36.20;;;;;;5092112;28;20414;-75
2022/02/19 00:28:19;;;;;;;1.55;0.70;;;22.40;36.40;;;;;;5092273;28;20389;-74
2022/02/19 00:30:45;;;;;;;1.30;0.70;;;22.50;36.40;;;;;;5091570;28;20754;-74
2022/02/19 00:33:11;;;;;;;1.20;0.88;;;22.50;36.40;;;;;;5090265;28;20758;-74
2022/02/19 00:35:36;;;;;;;1.27;0.57;;;22.50;36.40;;;;;;5090626;28;20382;-74
2022/02/19 00:38:02;;;;;;;1.10;0.55;;;22.40;36.10;;;;;;5092064;28;20386;-75
2022/02/19 00:40:27;;;;;;;1.67;0.70;;;22.40;36.20;;;;;;5091569;28;20406;-74
2022/02/19 00:42:53;;;;;;;1.27;0.77;;;22.40;36.10;;;;;;5091243;28;20390;-74
2022/02/19 00:45:19;;;;;;;1.33;0.90;;;22.30;36.40;;;;;;5091604;28;20885;-74
2022/02/19 00:47:45;;;;;;;0.90;0.60;;;22.40;36.40;;;;;;5091581;28;20382;-74
2022/02/19 00:50:10;;;;;;;1.55;0.68;;;22.30;36.30;;;;;;5091733;28;20374;-74
2022/02/19 00:52:36;;;;;;;1.30;0.60;;;22.30;35.90;;;;;;5091664;28;20827;-74
2022/02/19 00:55:02;;;;;;;1.20;0.70;;;22.30;35.90;;;;;;5091080;28;20390;-74
2022/02/19 00:57:28;;;;;;;0.88;0.68;;;22.30;36.10;;;;;;5091492;28;20424;-73
2022/02/19 00:59:54;;;;;;;1.07;0.60;;;22.20;36.30;;;;;;5091458;28;20901;-74
2022/02/19 01:02:19;;;;;;;1.00;0.60;;;22.30;36.20;;;;;;5092168;28;20410;-74
2022/02/19 01:04:45;;;;;;;1.00;0.40;;;22.20;36.20;;;;;;5091184;28;20445;-74
2022/02/19 01:07:11;;;;;;;1.25;0.65;;;22.20;35.70;;;;;;5091220;28;20386;-74
2022/02/19 01:09:36;;;;;;;0.97;0.50;;;22.20;35.80;;;;;;5091500;28;20479;-75
2022/02/19 01:12:02;;;;;;;0.93;0.60;;;22.20;35.80;;;;;;5092072;28;20382;-75
2022/02/19 01:14:28;;;;;;;1.00;0.60;;;22.20;36.10;;;;;;5091464;28;20866;-74
2022/02/19 01:16:54;;;;;;;1.00;0.50;;;22.10;36.10;;;;;;5090852;28;20439;-74
2022/02/19 01:19:20;;;;;;;0.97;0.50;;;22.10;36.20;;;;;;5091504;28;20378;-74
2022/02/19 01:21:45;;;;;;;1.23;0.70;;;22.10;36.00;;;;;;5089866;28;20842;-74
2022/02/19 01:24:11;;;;;;;1.50;0.50;;;22.10;35.80;;;;;;5091361;28;20382;-74
2022/02/19 01:26:37;;;;;;;1.13;0.57;;;22.10;35.90;;;;;;5091327;28;20543;-74
2022/02/19 01:29:04;;;;;;;1.03;0.50;;;22.10;36.10;;;;;;5090702;28;20378;-74
2022/02/19 01:31:31;;;;;;;0.90;0.50;;;22.00;36.20;;;;;;5091332;28;20874;-74
2022/02/19 01:33:57;;;;;;;1.38;0.63;;;22.00;36.20;;;;;;5092832;28;20387;-74
2022/02/19 01:36:22;;;;;;;1.15;0.50;;;22.00;36.20;;;;;;5094947;28;20495;-74
2022/02/19 01:38:48;;;;;;;1.00;0.53;;;22.00;35.90;;;;;;5095021;28;20398;-73
2022/02/19 01:41:14;;;;;;;1.00;0.50;;;22.00;35.80;;;;;;5094711;28;20390;-74
2022/02/19 01:43:39;;;;;;;1.30;0.80;;;22.00;36.00;;;;;;5094280;28;20459;-74
2022/02/19 01:46:05;;;;;;;0.88;0.45;;;21.90;36.10;;;;;;5094714;28;20467;-73
2022/02/19 01:48:31;;;;;;;0.80;0.50;;;22.00;36.20;;;;;;5093490;28;20387;-74
2022/02/19 01:50:57;;;;;;;0.80;0.40;;;21.90;36.60;;;;;;5094388;28;20397;-73
2022/02/19 01:53:23;;;;;;;0.85;0.68;;;21.90;35.80;;;;;;5095917;28;20378;-74
2022/02/19 01:55:48;;;;;;;1.13;0.50;;;21.90;35.70;;;;;;5093796;28;20951;-74
2022/02/19 01:58:14;;;;;;;1.00;0.40;;;21.90;35.90;;;;;;5094544;28;20378;-74
2022/02/19 02:00:41;;;;;;;0.85;0.50;;;21.90;36.10;;;;;;5093289;28;20386;-73
2022/02/19 02:03:07;;;;;;;0.90;0.60;;;21.90;36.10;;;;;;5094008;28;20405;-73
2022/02/19 02:05:36;;;;;;;1.13;0.50;;;21.80;36.00;;;;;;5094367;28;20417;-72
2022/02/19 02:08:05;;;;;;;1.17;0.50;;;21.80;35.80;;;;;;5093234;28;20413;-74
2022/02/19 02:10:33;;;;;;;0.90;0.50;;;21.80;35.60;;;;;;5094405;28;20422;-74
2022/02/19 02:12:59;;;;;;;0.80;0.40;;;21.80;35.80;;;;;;5092564;28;20383;-74
2022/02/19 02:15:29;;;;;;;1.40;0.40;;;21.80;36.10;;;;;;5093067;28;20417;-74
2022/02/19 02:18:00;;;;;;;0.90;0.50;;;21.80;36.10;;;;;;5093924;28;20401;-73
2022/02/19 02:20:27;;;;;;;0.82;0.50;;;21.80;36.10;;;;;;5093624;28;20417;-73
2022/02/19 02:22:53;;;;;;;0.80;0.40;;;21.80;35.90;;;;;;5093740;28;20874;-74
2022/02/19 02:25:26;;;;;;;0.70;0.40;;;21.80;35.70;;;;;;5093853;28;20548;-74
2022/02/19 02:27:52;;;;;;;1.23;0.50;;;21.70;35.60;;;;;;5094265;28;20750;-74
2022/02/19 02:30:18;;;;;;;0.70;0.50;;;21.70;36.10;;;;;;5093948;28;20389;-73
2022/02/19 02:32:44;;;;;;;1.50;0.40;;;21.70;36.10;;;;;;5093764;28;20390;-73
2022/02/19 02:35:09;;;;;;;0.90;0.40;;;21.70;36.00;;;;;;5093395;28;20904;-73
2022/02/19 02:37:35;;;;;;;0.60;0.40;;;21.70;35.80;;;;;;5094455;28;20378;-73
2022/02/19 02:40:00;;;;;;;0.57;0.30;;;21.70;35.60;;;;;;5093575;28;20418;-73
2022/02/19 02:42:26;;;;;;;0.60;0.40;;;21.70;35.60;;;;;;5093960;28;20405;-74
2022/02/19 02:44:52;;;;;;;0.77;0.40;;;21.60;36.10;;;;;;5093104;28;20473;-73
2022/02/19 02:47:18;;;;;;;0.60;0.40;;;21.60;36.00;;;;;;5093497;28;20407;-73
2022/02/19 02:49:43;;;;;;;0.60;0.32;;;21.70;36.10;;;;;;5093701;28;20382;-73
2022/02/19 02:52:09;;;;;;;0.57;0.32;;;21.60;35.80;;;;;;5093529;28;20391;-73
2022/02/19 02:54:36;;;;;;;0.45;0.30;;;21.60;35.50;;;;;;5094351;28;20384;-73
2022/02/19 02:57:02;;;;;;;1.03;0.40;;;21.60;35.60;;;;;;5093268;28;20991;-74
2022/02/19 02:59:28;;;;;;;0.60;0.40;;;21.60;35.90;;;;;;5092301;28;20472;-74
2022/02/19 03:01:53;;;;;;;0.60;0.40;;;21.50;36.00;;;;;;5093259;28;20810;-73
2022/02/19 03:04:19;;;;;;;0.70;0.30;;;21.50;36.00;;;;;;5093226;28;20382;-73
2022/02/19 03:06:44;;;;;;;0.65;0.30;;;21.50;36.50;;;;;;5092470;28;20445;-74
2022/02/19 03:09:10;;;;;;;0.70;0.30;;;21.50;35.60;;;;;;5094588;28;20382;-73
2022/02/19 03:11:36;;;;;;;0.70;0.30;;;21.50;35.50;;;;;;5092525;28;20433;-73
2022/02/19 03:14:05;;;;;;;0.67;0.40;;;21.50;35.80;;;;;;5093643;28;20454;-72
2022/02/19 03:16:31;;;;;;;0.40;0.38;;;21.50;36.00;;;;;;5092968;28;20983;-73
2022/02/19 03:18:57;;;;;;;0.63;0.50;;;21.50;36.00;;;;;;5091975;28;20393;-72
2022/02/19 03:21:23;;;;;;;0.70;0.30;;;21.40;35.90;;;;;;5093412;28;20390;-73
2022/02/19 03:23:48;;;;;;;0.60;0.40;;;21.50;35.80;;;;;;5093599;28;20385;-73
2022/02/19 03:26:14;;;;;;;0.77;0.30;;;21.40;35.50;;;;;;5095269;28;20456;-72
2022/02/19 03:28:39;;;;;;;0.60;0.40;;;21.40;35.70;;;;;;5093167;28;20734;-73
2022/02/19 03:31:05;;;;;;;0.60;0.30;;;21.40;36.10;;;;;;5091174;28;20397;-73
2022/02/19 03:33:31;;;;;;;1.15;0.40;;;21.40;36.20;;;;;;5092844;28;20473;-73
2022/02/19 03:35:56;;;;;;;0.60;0.30;;;21.40;35.90;;;;;;5091359;28;20394;-73
2022/02/19 03:38:22;;;;;;;0.77;0.45;;;21.40;35.70;;;;;;5093330;28;20382;-73
2022/02/19 03:40:48;;;;;;;0.70;0.40;;;21.40;35.60;;;;;;5091170;28;20412;-73
2022/02/19 03:43:14;;;;;;;0.60;0.32;;;21.40;35.60;;;;;;5092300;28;20406;-74
2022/02/19 03:45:43;;;;;;;0.60;0.40;;;21.30;36.00;;;;;;5091530;28;20468;-74
2022/02/19 03:48:09;;;;;;;1.27;0.32;;;21.30;36.60;;;;;;5093150;28;20474;-74
2022/02/19 03:50:36;;;;;;;0.75;0.40;;;21.40;36.00;;;;;;5092240;28;20451;-72
2022/02/19 03:53:02;;;;;;;0.45;0.20;;;21.30;35.80;;;;;;5092233;28;20866;-73
2022/02/19 03:55:28;;;;;;;0.55;0.30;;;21.40;35.70;;;;;;5090865;28;20918;-73
2022/02/19 03:57:53;;;;;;;1.47;0.50;;;21.30;35.40;;;;;;5091961;28;20474;-73
2022/02/19 04:00:21;;;;;;;0.57;0.30;;;21.30;35.90;;;;;;5092266;28;20421;-74
2022/02/19 04:02:47;;;;;;;0.98;0.40;;;21.30;35.80;;;;;;5092226;28;20390;-73
2022/02/19 04:05:14;;;;;;;1.02;0.40;;;21.30;35.80;;;;;;5090463;28;21087;-73
2022/02/19 04:07:40;;;;;;;0.85;0.38;;;21.30;35.70;;;;;;5093487;28;20391;-74
2022/02/19 04:10:07;;;;;;;0.50;0.30;;;21.30;36.30;;;;;;5090849;28;20425;-73
2022/02/19 04:12:33;;;;;;;0.40;0.22;;;21.30;35.60;;;;;;5090748;28;20739;-72
2022/02/19 04:14:59;;;;;;;0.40;0.30;;;21.30;35.90;;;;;;5090570;28;20913;-74
2022/02/19 04:17:24;;;;;;;0.60;0.28;;;21.30;35.90;;;;;;5091979;28;20466;-73
2022/02/19 04:19:53;;;;;;;0.60;0.40;;;21.30;36.00;;;;;;5091989;28;20443;-73
2022/02/19 04:22:22;;;;;;;0.70;0.40;;;21.30;35.80;;;;;;5093716;28;20796;-74
2022/02/19 04:24:49;;;;;;;0.80;0.40;;;21.30;35.40;;;;;;5091729;28;20402;-72
2022/02/19 04:27:15;;;;;;;0.60;0.30;;;21.30;35.50;;;;;;5092117;28;20400;-73
2022/02/19 04:29:41;;;;;;;0.50;0.40;;;21.20;35.90;;;;;;5091870;28;20431;-74
2022/02/19 04:32:08;;;;;;;0.90;0.30;;;21.30;36.00;;;;;;5091782;28;20382;-74
2022/02/19 04:34:34;;;;;;;0.60;0.30;;;21.30;35.90;;;;;;5091853;28;20382;-72
2022/02/19 04:37:00;;;;;;;0.65;0.25;;;21.30;35.80;;;;;;5090190;28;20383;-73
2022/02/19 04:39:25;;;;;;;0.50;0.40;;;21.20;35.50;;;;;;5091346;28;20455;-73
2022/02/19 04:41:51;;;;;;;0.80;0.40;;;21.30;35.40;;;;;;5092732;28;20465;-73
2022/02/19 04:44:17;;;;;;;0.70;0.40;;;21.20;35.30;;;;;;5091663;28;20386;-73
2022/02/19 04:46:42;;;;;;;0.73;0.40;;;21.20;35.80;;;;;;5090356;28;20434;-73
2022/02/19 04:49:11;;;;;;;0.53;0.40;;;21.20;35.90;;;;;;5091104;28;20470;-73
2022/02/19 04:51:37;;;;;;;0.70;0.40;;;21.20;35.90;;;;;;5091681;28;20540;-73
2022/02/19 04:54:03;;;;;;;0.68;0.30;;;21.20;35.60;;;;;;5092864;28;20436;-73
2022/02/19 04:56:31;;;;;;;0.57;0.28;;;21.20;35.40;;;;;;5091038;28;20390;-73
2022/02/19 04:58:57;;;;;;;0.80;0.40;;;21.20;35.40;;;;;;5091603;28;20390;-73
2022/02/19 05:01:22;;;;;;;0.50;0.40;;;21.20;35.90;;;;;;5091439;28;20447;-73
2022/02/19 05:03:48;;;;;;;0.60;0.35;;;21.20;36.00;;;;;;5091413;28;20378;-73
2022/02/19 05:06:14;;;;;;;0.67;0.40;;;21.20;36.00;;;;;;5091452;28;20414;-73
2022/02/19 05:08:40;;;;;;;0.90;0.40;;;21.20;35.80;;;;;;5094888;28;20789;-72
2022/02/19 05:11:06;;;;;;;0.60;0.38;;;21.20;35.40;;;;;;5093860;28;20394;-73
2022/02/19 05:13:32;;;;;;;0.70;0.47;;;21.20;35.50;;;;;;5095522;28;20439;-73
2022/02/19 05:15:58;;;;;;;1.17;0.40;;;21.10;35.90;;;;;;5095463;28;20378;-74
2022/02/19 05:18:23;;;;;;;0.65;0.30;;;21.20;36.00;;;;;;5095435;28;20393;-73
2022/02/19 05:20:49;;;;;;;0.67;0.30;;;21.20;36.20;;;;;;5095351;28;20382;-73
2022/02/19 05:23:14;;;;;;;1.30;0.40;;;21.20;35.90;;;;;;5094982;28;20796;-73
2022/02/19 05:25:41;;;;;;;0.73;0.50;;;21.10;35.50;;;;;;5093836;28;20414;-73
2022/02/19 05:28:08;;;;;;;0.70;0.40;;;21.10;35.60;;;;;;5095286;28;20382;-73
2022/02/19 05:30:35;;;;;;;0.55;0.30;;;21.10;35.80;;;;;;5095152;28;20410;-74
2022/02/19 05:33:00;;;;;;;0.80;0.50;;;21.20;36.10;;;;;;5094775;28;20427;-73
2022/02/19 05:35:26;;;;;;;0.53;0.40;;;21.10;36.10;;;;;;5094948;28;20386;-73
2022/02/19 05:37:51;;;;;;;0.80;0.40;;;21.20;35.90;;;;;;5097042;28;20439;-73
2022/02/19 05:40:17;;;;;;;0.80;0.60;;;21.10;35.40;;;;;;5094868;28;20406;-73
2022/02/19 05:42:43;;;;;;;0.90;0.50;;;21.10;35.40;;;;;;5095736;28;20442;-72
2022/02/19 05:45:09;;;;;;;0.90;0.40;;;21.10;35.80;;;;;;5094247;28;20423;-74
2022/02/19 05:47:34;;;;;;;0.82;0.40;;;21.10;36.00;;;;;;5094836;28;20436;-72
2022/02/19 05:50:00;;;;;;;0.90;0.50;;;21.10;36.10;;;;;;5092442;28;20878;-73
2022/02/19 05:52:26;;;;;;;1.30;0.50;;;21.10;35.90;;;;;;5094607;28;20859;-73
2022/02/19 05:54:54;;;;;;;0.90;0.50;;;21.10;35.60;;;;;;5094671;28;20859;-73
2022/02/19 05:57:21;;;;;;;1.40;0.50;;;21.00;35.30;;;;;;5094206;28;20440;-73
2022/02/19 05:59:48;;;;;;;1.23;0.50;;;21.00;35.40;;;;;;5094609;28;20386;-72
2022/02/19 06:02:14;;;;;;;0.68;0.50;;;21.00;35.70;;;;;;5095085;28;20889;-73
2022/02/19 06:04:39;;;;;;;0.80;0.40;;;21.00;36.00;;;;;;5094381;28;20410;-72
2022/02/19 06:07:05;;;;;;;0.90;0.50;;;21.00;36.00;;;;;;5093261;28;20867;-73
2022/02/19 06:09:31;;;;;;;0.80;0.40;;;21.00;35.50;;;;;;5094370;28;20390;-72
2022/02/19 06:11:56;;;;;;;1.30;0.40;;;21.00;35.40;;;;;;5094359;28;20422;-73
2022/02/19 06:14:22;;;;;;;1.10;0.60;;;21.00;35.10;;;;;;5094232;28;20873;-73
2022/02/19 06:16:49;;;;;;;0.80;0.40;;;21.00;35.80;;;;;;5094231;28;20382;-73
2022/02/19 06:19:15;;;;;;;1.30;0.50;;;21.00;36.00;;;;;;5075062;28;20413;-73
2022/02/19 06:21:40;;;;;;;0.95;0.40;;;21.00;35.90;;;;;;5092989;28;20389;-72
2022/02/19 06:24:06;;;;;;;1.10;0.70;;;20.90;35.60;;;;;;5093084;28;20394;-71
2022/02/19 06:26:32;;;;;;;1.00;0.40;;;21.00;35.30;;;;;;5096758;28;20812;-72
2022/02/19 06:28:57;;;;;;;0.73;0.40;;;21.00;35.20;;;;;;5100079;28;20386;-73
2022/02/19 06:31:24;;;;;;;1.83;0.52;;;20.90;35.60;;;;;;5093445;28;20394;-73
2022/02/19 06:33:49;;;;;;;2.30;0.50;;;21.00;36.00;;;;;;5093905;28;20385;-73
2022/02/19 06:36:15;;;;;;;1.25;0.50;;;21.10;36.10;;;;;;5094060;28;20387;-75
2022/02/19 06:38:42;;;;;;;1.63;0.55;;;21.00;35.40;;;;;;5093114;28;20386;-74
2022/02/19 06:41:09;;;;;;;4.40;0.85;;;21.00;35.10;;;;;;5104993;28;20423;-73
2022/02/19 06:43:35;;;;;;;1.50;0.60;;;20.90;34.90;;;;;;5114384;28;20380;-76
2022/02/19 06:46:01;;;;;;;2.33;0.50;;;20.90;35.20;;;;;;5114678;28;20780;-76
2022/02/19 06:48:27;;;;;;;1.97;0.67;;;20.90;35.90;;;;;;5114269;28;20380;-75
2022/02/19 06:50:53;;;;;;;4.28;0.77;;;20.90;36.00;;;;;;5112764;28;20749;-75
2022/02/19 06:53:19;;;;;;;2.53;0.70;;;21.00;36.00;;;;;;5113528;28;20733;-75
2022/02/19 06:55:45;;;;;;;2.30;0.60;;;21.00;36.20;;;;;;5114123;28;20381;-75
2022/02/19 06:58:11;;;;;;;1.17;0.60;;;21.00;35.80;;;;;;5114249;28;20437;-76
2022/02/19 07:00:36;;;;;;;3.10;0.98;;;21.10;35.90;;;;;;5114024;28;20390;-76
2022/02/19 07:03:02;;;;;;;2.97;0.70;;;21.10;36.00;;;;;;5113974;28;20380;-73
2022/02/19 07:05:28;;;;;;;2.03;0.63;;;21.20;36.50;;;;;;5113719;28;20396;-75
2022/02/19 07:07:53;;;;;;;7.50;0.90;;;21.20;36.00;;;;;;5114064;28;20466;-76
2022/02/19 07:10:19;;;;;;;2.40;0.80;;;21.20;36.50;;;;;;5114046;28;20412;-75
2022/02/19 07:12:45;;;;;;;2.73;0.80;;;21.20;37.00;;;;;;5112585;28;20457;-75
2022/02/19 07:15:11;;;;;;;2.70;0.65;;;21.30;36.60;;;;;;5111904;28;20764;-75
2022/02/19 07:17:51;;;;;;;3.05;0.75;;;21.40;36.60;;;;;;5114045;28;20774;-76
2022/02/19 07:20:20;;;;;;;2.40;0.50;;;21.30;36.40;;;;;;5112275;28;20786;-75
2022/02/19 07:22:46;;;;;;;1.95;0.50;;;21.40;36.90;;;;;;5112042;28;20480;-75
2022/02/19 07:25:12;;;;;;;2.92;0.77;;;21.40;36.70;;;;;;5112698;28;20525;-74
2022/02/19 07:27:42;;;;;;;2.20;0.50;;;21.50;36.80;;;;;;5112010;28;20380;-76
2022/02/19 07:30:09;;;;;;;3.20;0.90;;;21.50;36.40;;;;;;5113319;28;20411;-75
2022/02/19 07:32:36;;;;;;;4.90;0.60;;;21.50;36.40;;;;;;5112527;28;20786;-72
2022/02/19 07:35:03;;;;;;;2.17;0.70;;;21.50;36.00;;;;;;5113090;28;20368;-72
2022/02/19 07:37:29;;;;;;;4.50;0.70;;;21.50;35.80;;;;;;5113460;28;20396;-71
2022/02/19 07:39:55;;;;;;;3.83;0.77;;;21.70;37.40;;;;;;5111942;28;20400;-74
2022/02/19 07:42:20;;;;;;;5.47;0.80;;;21.80;36.60;;;;;;5112958;28;20388;-73
2022/02/19 07:44:46;;;;;;;5.27;1.30;;;21.80;38.30;;;;;;5112520;28;20396;-73
2022/02/19 07:47:12;;;;;;;5.15;1.10;;;21.80;39.30;;;;;;5110955;28;20408;-71
2022/02/19 08:00:39;;;;;;;5.57;0.90;;;21.60;38.00;;;;;;5112638;28;20371;-72
2022/02/19 08:03:05;;;;;;;4.10;0.75;;;21.70;37.50;;;;;;5112498;28;20393;-67
2022/02/19 08:05:32;;;;;;;3.30;0.70;;;21.80;37.80;;;;;;5112169;28;20408;-68
2022/02/19 08:07:57;;;;;;;3.30;0.80;;;21.80;37.70;;;;;;5091362;28;20374;-68
2022/02/19 08:10:23;;;;;;;4.88;1.00;;;21.90;37.10;;;;;;5072204;28;20399;-68
2022/02/19 08:12:49;;;;;;;2.53;0.68;;;21.90;37.30;;;;;;5072043;28;20390;-69
2022/02/19 08:15:14;;;;;;;3.95;0.80;;;21.90;37.10;;;;;;5068552;28;20396;-68
2022/02/19 08:17:40;;;;;;;3.17;0.60;;;21.90;37.10;;;;;;5077325;28;20382;-69
2022/02/19 08:20:06;;;;;;;1.77;0.70;;;21.90;36.10;;;;;;5094125;28;20870;-68
2022/02/19 08:22:32;;;;;;;3.50;0.97;;;21.80;36.50;;;;;;5092092;28;20487;-70
2022/02/19 08:24:58;;;;;;;3.97;0.65;;;21.80;36.50;;;;;;5092098;28;20497;-70
2022/02/19 08:27:24;;;;;;;4.95;0.70;;;21.80;36.10;;;;;;5091454;28;20382;-70
2022/02/19 08:29:49;;;;;;;3.93;0.80;;;21.90;36.00;;;;;;5090985;28;20397;-71
2022/02/19 08:32:15;;;;;;;2.40;0.80;;;21.90;35.50;;;;;;5091661;28;20378;-70
2022/02/19 08:34:40;;;;;;;3.77;0.73;;;21.90;35.30;;;;;;5091785;28;20413;-70
2022/02/19 08:37:06;;;;;;;4.65;0.70;;;21.90;35.60;;;;;;5090578;28;20428;-71
2022/02/19 08:39:32;;;;;;;3.40;0.60;;;21.90;35.50;;;;;;5090119;28;20405;-69
2022/02/19 08:41:58;;;;;;;2.60;0.70;;;21.90;35.70;;;;;;5089348;28;20398;-66
2022/02/19 08:44:23;;;;;;;2.03;0.50;;;21.90;35.40;;;;;;5090852;28;20385;-67
2022/02/19 08:46:49;;;;;;;3.20;0.80;;;21.90;35.50;;;;;;5089385;28;20571;-70
2022/02/19 08:49:15;;;;;;;4.80;1.00;;;21.90;35.60;;;;;;5090172;28;20383;-69
2022/02/19 08:51:40;;;;;;;2.67;0.80;;;21.90;35.30;;;;;;5091120;28;20478;-68
2022/02/19 08:54:07;;;;;;;2.97;0.80;;;21.90;35.40;;;;;;5089813;28;20935;-69
2022/02/19 08:56:32;;;;;;;2.70;0.60;;;21.80;35.20;;;;;;5090075;28;20950;-70
2022/02/19 08:58:58;;;;;;;1.60;0.60;;;21.80;35.40;;;;;;5105584;28;20483;-71
2022/02/19 09:01:27;;;;;;;3.83;0.90;;;21.80;35.30;;;;;;5111115;28;20384;-71
2022/02/19 09:03:53;;;;;;;2.47;0.63;;;21.80;35.20;;;;;;5112107;28;20396;-71
2022/02/19 09:06:19;;;;;;;4.63;0.73;;;21.80;35.60;;;;;;5111711;28;20404;-70
2022/02/19 09:08:46;;;;;;;2.47;0.90;;;21.80;35.50;;;;;;5091827;28;20454;-70
2022/02/19 09:11:11;;;;;;;4.40;0.70;;;21.80;35.30;;;;;;5091121;28;20806;-71
2022/02/19 09:13:37;;;;;;;3.25;0.80;;;21.80;35.20;;;;;;5092003;28;20457;-71
2022/02/19 09:16:03;;;;;;;3.73;0.73;;;21.70;35.10;;;;;;5091329;28;20413;-70
2022/02/19 09:18:29;;;;;;;2.00;0.60;;;21.70;35.00;;;;;;5091352;28;20382;-70
2022/02/19 09:20:54;;;;;;;5.10;1.10;;;21.70;35.00;;;;;;5091130;28;20776;-70
2022/02/19 09:23:20;;;;;;;2.17;0.52;;;21.70;35.00;;;;;;5090684;28;20862;-70
2022/02/19 09:25:46;;;;;;;2.73;0.60;;;21.70;34.90;;;;;;5090868;28;20425;-70
2022/02/19 09:28:13;;;;;;;2.45;0.70;;;21.70;35.00;;;;;;5089773;28;20394;-70
2022/02/19 09:30:39;;;;;;;2.92;0.90;;;21.70;34.90;;;;;;5090897;28;20392;-70
2022/02/19 09:33:04;;;;;;;3.20;0.70;;;21.70;35.00;;;;;;5091000;28;20453;-72
2022/02/19 09:35:30;;;;;;;4.75;0.80;;;21.70;34.90;;;;;;5090727;28;20890;-71
2022/02/19 09:37:56;;;;;;;3.67;0.63;;;21.70;34.90;;;;;;5090275;28;20396;-72
2022/02/19 09:40:22;;;;;;;5.32;0.73;;;21.70;34.80;;;;;;5090501;28;20492;-70
2022/02/19 09:42:50;;;;;;;2.95;0.88;;;21.80;34.90;;;;;;5091390;28;20390;-67
2022/02/19 09:45:17;;;;;;;5.05;0.80;;;21.80;35.20;;;;;;5090416;28;20424;-70
2022/02/19 09:47:44;;;;;;;2.60;0.80;;;21.80;35.90;;;;;;5091435;28;20393;-70
2022/02/19 09:50:11;;;;;;;4.63;1.15;;;21.90;36.40;;;;;;5090687;28;20386;-71
2022/02/19 09:52:38;;;;;;;3.67;0.73;;;22.00;37.00;;;;;;5090910;28;20889;-71
2022/02/19 09:55:05;;;;;;;2.78;0.80;;;22.00;36.40;;;;;;5092015;28;20477;-71
2022/02/19 09:57:31;;;;;;;2.92;0.93;;;22.10;36.10;;;;;;5094966;28;20443;-68
2022/02/19 09:59:56;;;;;;;4.25;0.75;;;22.10;36.10;;;;;;5093494;28;20386;-70
2022/02/19 10:02:34;;;;;;;4.43;0.80;;;22.10;36.00;;;;;;5094477;28;20390;-71
2022/02/19 10:05:11;;;;;;;3.85;0.90;;;22.10;36.20;;;;;;5093558;28;20409;-67
2022/02/19 10:07:37;;;;;;;2.97;0.73;;;22.10;36.10;;;;;;5094591;28;20394;-70
2022/02/19 10:10:06;;;;;;;6.15;0.90;;;22.10;35.50;;;;;;5092108;28;20382;-71
2022/02/19 10:12:46;;;;;;;4.20;0.70;;;22.10;35.70;;;;;;5091628;28;20476;-71
2022/02/19 10:15:12;;;;;;;3.78;0.90;;;22.10;35.80;;;;;;5092712;28;20381;-70
2022/02/19 10:17:39;;;;;;;3.40;0.70;;;22.10;36.10;;;;;;5093814;28;20442;-69
2022/02/19 10:20:06;;;;;;;2.75;0.80;;;22.10;36.00;;;;;;5092792;28;20468;-69
2022/02/19 10:22:36;;;;;;;4.57;0.80;;;22.10;35.70;;;;;;5093934;28;20390;-70
2022/02/19 10:25:07;;;;;;;3.17;0.80;;;22.00;35.70;;;;;;5093228;28;20417;-70
2022/02/19 10:27:41;;;;;;;2.63;0.70;;;22.10;35.70;;;;;;5093000;28;21017;-69
2022/02/19 10:30:08;;;;;;;4.05;0.68;;;22.10;35.50;;;;;;5092344;28;20473;-72
2022/02/19 10:32:54;;;;;;;4.22;0.90;;;22.10;35.40;;;;;;5093796;28;20394;-71
2022/02/19 10:35:27;;;;;;;4.03;0.80;;;22.20;35.60;;;;;;5093733;28;20418;-70
2022/02/19 10:37:53;;;;;;;2.42;0.98;;;22.10;35.40;;;;;;5093634;28;20469;-70
2022/02/19 10:40:34;;;;;;;2.67;0.70;;;22.10;35.50;;;;;;5093537;28;20567;-69
2022/02/19 10:43:04;;;;;;;3.60;0.70;;;22.10;35.30;;;;;;5093249;28;20792;-69
2022/02/19 10:45:31;;;;;;;5.38;0.93;;;22.10;35.10;;;;;;5091794;28;20410;-68
2022/02/19 10:48:17;;;;;;;3.63;0.90;;;22.10;35.20;;;;;;5093497;28;20413;-68
2022/02/19 10:50:45;;;;;;;6.10;0.90;;;22.10;35.20;;;;;;5092203;28;20398;-69
2022/02/19 10:53:20;;;;;;;9.50;1.10;;;22.00;35.30;;;;;;5091964;28;20386;-65
2022/02/19 10:55:46;;;;;;;5.93;0.80;;;22.00;35.30;;;;;;5092206;28;20481;-71
2022/02/19 10:58:12;;;;;;;5.00;0.80;;;22.10;35.30;;;;;;5092975;28;20817;-71
2022/02/19 11:00:37;;;;;;;6.33;1.00;;;22.00;35.00;;;;;;5092137;28;20989;-70
2022/02/19 11:03:05;;;;;;;4.78;0.80;;;22.10;35.40;;;;;;5093213;28;20461;-71
2022/02/19 11:05:31;;;;;;;4.03;0.85;;;22.10;35.40;;;;;;5092229;28;20418;-70
2022/02/19 11:08:00;;;;;;;4.47;0.80;;;22.10;35.70;;;;;;5093139;28;20382;-71
2022/02/19 11:10:26;;;;;;;3.40;0.68;;;22.10;35.50;;;;;;5093236;28;20398;-71
2022/02/19 11:12:52;;;;;;;4.82;0.88;;;22.10;35.30;;;;;;5093053;28;20382;-70
2022/02/19 11:15:19;;;;;;;3.97;0.90;;;22.10;35.60;;;;;;5092903;28;20412;-71
2022/02/19 11:17:47;;;;;;;2.58;0.82;;;22.20;34.90;;;;;;5092794;28;20422;-71
2022/02/19 11:20:14;;;;;;;3.45;0.90;;;22.10;34.60;;;;;;5093116;28;20393;-71
2022/02/19 11:22:42;;;;;;;3.90;0.90;;;22.10;34.60;;;;;;5092625;28;20386;-71
2022/02/19 11:25:11;;;;;;;2.60;1.00;;;22.20;34.60;;;;;;5092900;28;20406;-71
2022/02/19 11:27:42;;;;;;;3.97;0.80;;;22.20;34.40;;;;;;5092246;28;20474;-70
2022/02/19 11:30:10;;;;;;;3.65;1.00;;;22.20;34.30;;;;;;5092691;28;20370;-70
2022/02/19 11:32:39;;;;;;;3.08;1.00;;;22.20;34.30;;;;;;5092841;28;20388;-69
2022/02/19 11:35:06;;;;;;;2.72;0.90;;;22.20;34.30;;;;;;5091411;28;20382;-70
2022/02/19 11:37:41;;;;;;;6.13;1.10;;;22.30;34.20;;;;;;5092125;28;20958;-71
2022/02/19 11:40:15;;;;;;;3.73;1.30;;;22.30;34.20;;;;;;5092457;28;20394;-70
2022/02/19 11:42:41;;;;;;;3.40;1.23;;;22.30;34.10;;;;;;5091229;28;20390;-69
2022/02/19 11:45:23;;;;;;;4.80;1.20;;;22.30;34.00;;;;;;5092369;28;20766;-68
2022/02/19 11:48:09;;;;;;;2.60;0.80;;;22.30;34.00;;;;;;5092103;28;20378;-70
2022/02/19 11:50:40;;;;;;;3.22;1.10;;;22.30;34.20;;;;;;5080441;28;20394;-71
2022/02/19 11:53:12;;;;;;;4.45;1.20;;;22.30;33.90;;;;;;5092461;28;20373;-71
2022/02/19 11:55:38;;;;;;;2.85;1.10;;;22.30;34.00;;;;;;5091950;28;20455;-69
2022/02/19 11:58:08;;;;;;;2.58;1.00;;;22.30;33.80;;;;;;5091044;28;20421;-71
2022/02/19 12:00:55;;;;;;;3.72;1.40;;;22.30;33.80;;;;;;5092330;28;20386;-71
2022/02/19 12:03:24;;;;;;;2.70;1.10;;;22.30;34.10;;;;;;5092049;28;20437;-68
2022/02/19 12:06:18;;;;;;;4.03;1.27;;;22.30;34.00;;;;;;5091826;28;20489;-71
2022/02/19 12:08:46;;;;;;;4.13;1.20;;;22.30;33.80;;;;;;5092193;28;20389;-71
2022/02/19 12:11:13;;;;;;;3.17;1.20;;;22.30;33.70;;;;;;5092115;28;20393;-66
2022/02/19 12:13:47;;;;;;;4.93;1.58;;;22.30;33.70;;;;;;5091889;28;20390;-70
2022/02/19 12:16:39;;;;;;;3.23;1.40;;;22.30;33.60;;;;;;5091861;28;20448;-70
2022/02/19 12:19:09;;;;;;;3.40;1.30;;;22.30;33.70;;;;;;5090020;28;20398;-70
2022/02/19 12:21:37;;;;;;;5.00;1.55;;;22.30;33.60;;;;;;5091437;28;20378;-71
2022/02/19 12:24:19;;;;;;;3.22;1.45;;;22.30;33.60;;;;;;5091953;28;20788;-72
2022/02/19 12:26:57;;;;;;;5.10;1.90;;;22.30;33.50;;;;;;5091739;28;20410;-71
2022/02/19 12:29:36;;;;;;;3.58;1.50;;;22.30;33.30;;;;;;5091610;28;20926;-70
2022/02/19 12:32:20;;;;;;;4.15;1.60;;;22.40;33.30;;;;;;5090352;28;20409;-72
2022/02/19 12:34:54;;;;;;;3.30;1.63;;;22.30;33.50;;;;;;5091726;28;20452;-71
2022/02/19 12:37:21;;;;;;;3.22;1.42;;;22.30;34.20;;;;;;5091144;28;20416;-67
2022/02/19 12:39:52;;;;;;;4.82;1.40;;;22.30;32.70;;;;;;5089933;28;20519;-70
2022/02/19 12:42:23;;;;;;;2.58;1.23;;;22.40;33.30;;;;;;5088996;28;20442;-71
2022/02/19 12:45:04;;;;;;;3.53;1.20;;;22.50;33.60;;;;;;5087374;28;20890;-72
2022/02/19 12:47:30;;;;;;;4.30;1.55;;;22.50;35.30;;;;;;5085966;28;20497;-71
2022/02/19 12:49:56;;;;;;;3.93;1.20;;;22.40;33.90;;;;;;5090339;28;20986;-71
2022/02/19 12:52:23;;;;;;;4.43;1.20;;;22.50;34.30;;;;;;5090498;28;20386;-71
2022/02/19 12:54:49;;;;;;;4.32;1.42;;;22.40;34.10;;;;;;5087472;28;20378;-71
2022/02/19 12:57:20;;;;;;;2.95;1.20;;;22.40;33.70;;;;;;5090337;28;20378;-71
2022/02/19 12:59:53;;;;;;;4.30;1.48;;;22.40;33.60;;;;;;5089933;28;20382;-71